Time;durP1;ratioP1;P1;durP2;ratioP2;P2;SDS_P1;SDS_P2;PMS_P1;PMS_P2;Temp;Humidity;BMP_temperature;BMP_pressure;BME280_temperature;BME280_humidity;BME280_pressure;Samples;Min_cycle;Max_cycle;Signal;HPM_P1;HPM_P2
2023/02/19 00:00:08;;;;;;;16.77;7.78;;;;;;;;;;1037744;28;20029;-17
2023/02/19 00:00:38;;;;;;;14.35;5.55;;;;;;;;;;1037841;28;20025;-15
2023/02/19 00:01:10;;;;;;;10.90;5.30;;;;;;;;;;1037848;28;20022;-16
2023/02/19 00:01:41;;;;;;;13.60;6.68;;;;;;;;;;1037687;28;20073;-17
2023/02/19 00:02:12;;;;;;;12.90;6.53;;;;;;;;;;1037912;28;20025;-15
2023/02/19 00:02:44;;;;;;;16.80;6.13;;;;;;;;;;1037638;28;20781;-16
2023/02/19 00:03:14;;;;;;;10.45;6.40;;;;;;;;;;1037458;28;20022;-16
2023/02/19 00:03:55;;;;;;;12.18;5.70;;;;;;;;;;1037713;28;20037;-16
2023/02/19 00:04:25;;;;;;;9.85;7.07;;;;;;;;;;1037699;28;20147;-17
2023/02/19 00:04:56;;;;;;;11.20;5.57;;;;;;;;;;1037760;28;20080;-16
2023/02/19 00:05:26;;;;;;;11.68;5.75;;;;;;;;;;1037686;28;20030;-16
2023/02/19 00:06:00;;;;;;;15.60;6.70;;;;;;;;;;1037955;28;20488;-20
2023/02/19 00:06:31;;;;;;;15.85;6.47;;;;;;;;;;1037622;28;20381;-16
2023/02/19 00:07:02;;;;;;;14.60;7.10;;;;;;;;;;1037730;28;20025;-15
2023/02/19 00:07:32;;;;;;;14.07;8.55;;;;;;;;;;1037728;28;20132;-16
2023/02/19 00:08:02;;;;;;;11.05;6.82;;;;;;;;;;1037736;28;20026;-18
2023/02/19 00:08:33;;;;;;;13.65;7.88;;;;;;;;;;1037772;28;20049;-17
2023/02/19 00:09:04;;;;;;;16.52;7.13;;;;;;;;;;1037803;28;20068;-16
2023/02/19 00:09:34;;;;;;;10.43;5.25;;;;;;;;;;1037546;28;20128;-17
2023/02/19 00:10:05;;;;;;;9.63;6.47;;;;;;;;;;1037847;28;20025;-16
2023/02/19 00:10:35;;;;;;;16.52;5.90;;;;;;;;;;1037596;28;20103;-18
2023/02/19 00:11:07;;;;;;;12.38;5.85;;;;;;;;;;1037780;28;20469;-16
2023/02/19 00:11:38;;;;;;;18.42;7.78;;;;;;;;;;1037687;28;20025;-15
2023/02/19 00:12:08;;;;;;;10.75;6.10;;;;;;;;;;1037440;28;20026;-18
2023/02/19 00:12:39;;;;;;;23.08;8.07;;;;;;;;;;1037708;28;20089;-18
2023/02/19 00:13:09;;;;;;;16.75;6.65;;;;;;;;;;1037860;28;20033;-15
2023/02/19 00:13:41;;;;;;;15.75;7.05;;;;;;;;;;1037441;28;20056;-16
2023/02/19 00:14:13;;;;;;;15.85;7.70;;;;;;;;;;1037674;28;20033;-17
2023/02/19 00:14:44;;;;;;;17.10;7.60;;;;;;;;;;1037756;28;20425;-16
2023/02/19 00:15:14;;;;;;;8.98;5.68;;;;;;;;;;1037570;28;20025;-16
2023/02/19 00:15:45;;;;;;;15.63;8.38;;;;;;;;;;1037679;28;20022;-17
2023/02/19 00:16:19;;;;;;;14.80;8.20;;;;;;;;;;1037709;28;20110;-15
2023/02/19 00:16:50;;;;;;;13.50;6.10;;;;;;;;;;1037821;28;20022;-16
2023/02/19 00:17:20;;;;;;;12.23;5.63;;;;;;;;;;1037119;28;20029;-17
2023/02/19 00:17:51;;;;;;;14.18;8.88;;;;;;;;;;1037912;28;20054;-17
2023/02/19 00:18:22;;;;;;;11.93;5.95;;;;;;;;;;1037677;28;20067;-16
2023/02/19 00:18:53;;;;;;;15.30;9.15;;;;;;;;;;1037756;28;20022;-15
2023/02/19 00:19:23;;;;;;;13.30;7.60;;;;;;;;;;1037203;28;20025;-16
2023/02/19 00:19:54;;;;;;;12.57;5.53;;;;;;;;;;1037753;28;20516;-15
2023/02/19 00:20:24;;;;;;;11.43;7.10;;;;;;;;;;1037685;28;20477;-15
2023/02/19 00:20:55;;;;;;;7.63;5.95;;;;;;;;;;1037928;28;20426;-16
2023/02/19 00:21:26;;;;;;;10.40;8.55;;;;;;;;;;1037336;28;20049;-19
2023/02/19 00:21:56;;;;;;;19.88;7.35;;;;;;;;;;1037461;28;20508;-16
2023/02/19 00:22:27;;;;;;;12.90;6.88;;;;;;;;;;1037759;28;20023;-16
2023/02/19 00:22:57;;;;;;;10.68;6.20;;;;;;;;;;1037497;28;20025;-15
2023/02/19 00:23:28;;;;;;;22.67;7.97;;;;;;;;;;1036942;28;20094;-16
2023/02/19 00:23:59;;;;;;;21.05;10.20;;;;;;;;;;1037767;28;20028;-18
2023/02/19 00:24:30;;;;;;;17.58;6.25;;;;;;;;;;1036662;28;20017;-17
2023/02/19 00:25:00;;;;;;;10.73;6.93;;;;;;;;;;1037022;28;20030;-18
2023/02/19 00:25:31;;;;;;;16.23;8.05;;;;;;;;;;1037496;28;20022;-16
2023/02/19 00:26:09;;;;;;;17.35;5.57;;;;;;;;;;1037749;28;20026;-15
2023/02/19 00:26:40;;;;;;;13.75;6.85;;;;;;;;;;1037160;28;20029;-15
2023/02/19 00:27:11;;;;;;;16.48;6.38;;;;;;;;;;1037685;28;20030;-15
2023/02/19 00:27:41;;;;;;;16.08;8.57;;;;;;;;;;1037567;28;20481;-15
2023/02/19 00:28:12;;;;;;;17.85;7.53;;;;;;;;;;1037686;28;20056;-16
2023/02/19 00:28:42;;;;;;;13.20;7.35;;;;;;;;;;1037387;28;20068;-14
2023/02/19 00:29:14;;;;;;;16.02;6.20;;;;;;;;;;1037408;28;20485;-15
2023/02/19 00:29:44;;;;;;;14.43;6.57;;;;;;;;;;1037500;28;20058;-16
2023/02/19 00:30:14;;;;;;;16.33;7.60;;;;;;;;;;1036596;28;20041;-16
2023/02/19 00:30:45;;;;;;;12.00;6.63;;;;;;;;;;1037766;28;20018;-16
2023/02/19 00:31:23;;;;;;;17.15;6.50;;;;;;;;;;1037561;28;20029;-17
2023/02/19 00:31:54;;;;;;;10.50;6.70;;;;;;;;;;1037099;28;20076;-16
2023/02/19 00:32:24;;;;;;;12.52;5.88;;;;;;;;;;1037822;28;20049;-16
2023/02/19 00:32:55;;;;;;;17.33;8.27;;;;;;;;;;1037622;28;20112;-16
2023/02/19 00:33:27;;;;;;;14.15;5.45;;;;;;;;;;1037646;28;20028;-15
2023/02/19 00:33:58;;;;;;;16.58;7.63;;;;;;;;;;1037347;28;20033;-15
2023/02/19 00:34:29;;;;;;;12.02;6.72;;;;;;;;;;1037492;28;20030;-17
2023/02/19 00:34:59;;;;;;;20.15;8.60;;;;;;;;;;1036816;28;20112;-16
2023/02/19 00:35:32;;;;;;;13.75;8.13;;;;;;;;;;1036591;28;20025;-16
2023/02/19 00:36:04;;;;;;;16.25;7.55;;;;;;;;;;1037784;28;20025;-16
2023/02/19 00:36:36;;;;;;;23.02;8.00;;;;;;;;;;1037476;28;20774;-15
2023/02/19 00:37:06;;;;;;;13.85;6.93;;;;;;;;;;1037551;28;20079;-17
2023/02/19 00:37:36;;;;;;;14.10;7.53;;;;;;;;;;1037551;28;20025;-19
2023/02/19 00:38:07;;;;;;;15.05;8.77;;;;;;;;;;1037385;28;20032;-17
2023/02/19 00:38:38;;;;;;;16.90;7.82;;;;;;;;;;1037275;28;20028;-17
2023/02/19 00:39:10;;;;;;;13.25;7.75;;;;;;;;;;1032696;28;20026;-17
2023/02/19 00:39:40;;;;;;;20.95;8.80;;;;;;;;;;1033107;28;20117;-15
2023/02/19 00:40:10;;;;;;;20.88;7.85;;;;;;;;;;1033298;28;20022;-16
2023/02/19 00:40:42;;;;;;;12.45;6.10;;;;;;;;;;1033405;28;20084;-17
2023/02/19 00:41:19;;;;;;;12.15;6.00;;;;;;;;;;1037582;28;20037;-18
2023/02/19 00:41:49;;;;;;;14.77;7.88;;;;;;;;;;1037321;28;20401;-16
2023/02/19 00:42:20;;;;;;;20.77;7.70;;;;;;;;;;1037451;28;20064;-17
2023/02/19 00:42:50;;;;;;;19.02;7.57;;;;;;;;;;1037891;28;20504;-17
2023/02/19 00:43:21;;;;;;;18.52;7.70;;;;;;;;;;1037459;28;20066;-16
2023/02/19 00:43:56;;;;;;;24.40;7.93;;;;;;;;;;1037597;28;20021;-16
2023/02/19 00:44:26;;;;;;;19.85;7.57;;;;;;;;;;1037512;28;20037;-17
2023/02/19 00:44:57;;;;;;;17.10;8.45;;;;;;;;;;1037385;28;20025;-15
2023/02/19 00:45:27;;;;;;;21.77;10.30;;;;;;;;;;1037369;28;20404;-14
2023/02/19 00:45:58;;;;;;;11.85;6.95;;;;;;;;;;1037305;28;20030;-17
2023/02/19 00:46:28;;;;;;;13.40;8.13;;;;;;;;;;1033107;28;20026;-15
2023/02/19 00:46:59;;;;;;;17.05;9.15;;;;;;;;;;1033385;28;20023;-17
2023/02/19 00:47:29;;;;;;;14.27;7.28;;;;;;;;;;1033152;28;20023;-16
2023/02/19 00:48:00;;;;;;;14.60;7.78;;;;;;;;;;1032303;28;20018;-19
2023/02/19 00:48:30;;;;;;;19.73;7.47;;;;;;;;;;1036908;28;20025;-15
2023/02/19 00:49:01;;;;;;;19.50;8.70;;;;;;;;;;1037758;28;20469;-16
2023/02/19 00:49:31;;;;;;;19.13;9.50;;;;;;;;;;1037547;28;20377;-15
2023/02/19 00:50:01;;;;;;;18.08;7.53;;;;;;;;;;1037651;28;20469;-14
2023/02/19 00:50:32;;;;;;;13.25;7.28;;;;;;;;;;1037523;28;20552;-17
2023/02/19 00:51:02;;;;;;;14.63;7.80;;;;;;;;;;1037940;28;20033;-16
2023/02/19 00:51:34;;;;;;;16.13;7.85;;;;;;;;;;1037839;28;20024;-17
2023/02/19 00:52:05;;;;;;;21.55;6.55;;;;;;;;;;1037537;28;20022;-16
2023/02/19 00:52:35;;;;;;;13.25;6.68;;;;;;;;;;1037607;28;20018;-15
2023/02/19 00:53:05;;;;;;;16.55;5.80;;;;;;;;;;1037676;28;20026;-16
2023/02/19 00:53:36;;;;;;;10.48;5.78;;;;;;;;;;1037583;28;20018;-15
2023/02/19 00:54:06;;;;;;;12.85;7.63;;;;;;;;;;1037534;28;20060;-15
2023/02/19 00:54:37;;;;;;;9.95;6.50;;;;;;;;;;1037593;28;20025;-16
2023/02/19 00:55:07;;;;;;;10.10;5.82;;;;;;;;;;1037886;28;20103;-16
2023/02/19 00:55:38;;;;;;;11.30;6.22;;;;;;;;;;1037418;28;20389;-16
2023/02/19 00:56:08;;;;;;;11.18;7.63;;;;;;;;;;1037713;28;20025;-15
2023/02/19 00:56:39;;;;;;;15.23;6.10;;;;;;;;;;1037119;28;20022;-15
2023/02/19 00:57:09;;;;;;;8.00;4.88;;;;;;;;;;1037184;28;20120;-16
2023/02/19 00:57:40;;;;;;;7.57;5.55;;;;;;;;;;1037361;28;20037;-16
2023/02/19 00:58:10;;;;;;;10.23;5.88;;;;;;;;;;1037700;28;20057;-15
2023/02/19 00:58:41;;;;;;;10.43;4.47;;;;;;;;;;1037550;28;20025;-17
2023/02/19 00:59:11;;;;;;;19.50;7.32;;;;;;;;;;1037571;28;20152;-14
2023/02/19 00:59:42;;;;;;;13.05;7.63;;;;;;;;;;1037496;28;20036;-15
2023/02/19 01:00:12;;;;;;;10.68;6.60;;;;;;;;;;1037410;28;20133;-14
2023/02/19 01:00:43;;;;;;;12.85;6.15;;;;;;;;;;1037455;28;20489;-16
2023/02/19 01:01:14;;;;;;;10.77;4.78;;;;;;;;;;1037284;28;20861;-16
2023/02/19 01:01:45;;;;;;;9.57;5.18;;;;;;;;;;1037601;28;20022;-17
2023/02/19 01:02:15;;;;;;;14.85;5.10;;;;;;;;;;1037467;28;20033;-14
2023/02/19 01:02:46;;;;;;;6.78;4.38;;;;;;;;;;1036549;28;20023;-16
2023/02/19 01:03:16;;;;;;;11.25;6.68;;;;;;;;;;1036429;28;20025;-18
2023/02/19 01:03:47;;;;;;;14.70;4.68;;;;;;;;;;1037671;28;20049;-18
2023/02/19 01:04:17;;;;;;;13.20;7.80;;;;;;;;;;1037388;28;20021;-17
2023/02/19 01:04:48;;;;;;;7.65;4.35;;;;;;;;;;1037470;28;20497;-15
2023/02/19 01:05:18;;;;;;;11.93;5.15;;;;;;;;;;1037511;28;20033;-16
2023/02/19 01:05:49;;;;;;;8.15;4.97;;;;;;;;;;1037567;28;20022;-15
2023/02/19 01:06:22;;;;;;;12.80;6.65;;;;;;;;;;1037843;28;20089;-15
2023/02/19 01:06:52;;;;;;;11.40;6.30;;;;;;;;;;1037628;28;20033;-16
2023/02/19 01:07:23;;;;;;;17.60;7.20;;;;;;;;;;1037385;28;20465;-16
2023/02/19 01:07:53;;;;;;;9.60;4.85;;;;;;;;;;1037593;28;20022;-18
2023/02/19 01:08:24;;;;;;;9.60;6.10;;;;;;;;;;1036686;28;20021;-14
2023/02/19 01:08:55;;;;;;;9.60;4.15;;;;;;;;;;1037323;28;20026;-16
2023/02/19 01:09:25;;;;;;;13.02;5.78;;;;;;;;;;1036899;28;20026;-18
2023/02/19 01:09:56;;;;;;;10.32;6.00;;;;;;;;;;1037602;28;20026;-15
2023/02/19 01:10:26;;;;;;;12.13;7.07;;;;;;;;;;1037387;28;20025;-16
2023/02/19 01:10:57;;;;;;;9.95;5.18;;;;;;;;;;1037555;28;20018;-15
2023/02/19 01:11:27;;;;;;;13.20;7.75;;;;;;;;;;1037543;28;20474;-16
2023/02/19 01:11:58;;;;;;;8.98;5.63;;;;;;;;;;1037450;28;20022;-16
2023/02/19 01:12:28;;;;;;;10.38;5.97;;;;;;;;;;1037528;28;20033;-18
2023/02/19 01:12:59;;;;;;;10.30;6.60;;;;;;;;;;1037618;28;20083;-15
2023/02/19 01:13:29;;;;;;;13.25;6.85;;;;;;;;;;1037274;28;20052;-17
2023/02/19 01:14:00;;;;;;;9.63;6.30;;;;;;;;;;1037559;28;20405;-15
2023/02/19 01:14:31;;;;;;;10.60;7.03;;;;;;;;;;1036515;28;20025;-16
2023/02/19 01:15:01;;;;;;;15.85;8.10;;;;;;;;;;1035803;28;20107;-16
2023/02/19 01:15:32;;;;;;;13.75;6.03;;;;;;;;;;1037329;28;20025;-18
2023/02/19 01:16:07;;;;;;;9.48;5.55;;;;;;;;;;1037566;28;20021;-16
2023/02/19 01:16:38;;;;;;;14.85;6.72;;;;;;;;;;1037460;28;20033;-15
2023/02/19 01:17:08;;;;;;;11.90;6.00;;;;;;;;;;1036471;28;20541;-16
2023/02/19 01:17:39;;;;;;;12.05;5.20;;;;;;;;;;1037549;28;20034;-17
2023/02/19 01:18:10;;;;;;;17.95;7.45;;;;;;;;;;1037422;28;20384;-18
2023/02/19 01:18:41;;;;;;;11.05;6.20;;;;;;;;;;1037483;28;20117;-17
2023/02/19 01:19:11;;;;;;;14.27;6.72;;;;;;;;;;1037654;28;20029;-16
2023/02/19 01:19:41;;;;;;;22.30;6.53;;;;;;;;;;1037359;28;20030;-16
2023/02/19 01:20:12;;;;;;;8.63;5.88;;;;;;;;;;1037598;28;20056;-16
2023/02/19 01:20:43;;;;;;;10.38;6.85;;;;;;;;;;1037425;28;20109;-17
2023/02/19 01:21:15;;;;;;;9.20;5.80;;;;;;;;;;1036969;28;20156;-19
2023/02/19 01:21:45;;;;;;;14.02;6.55;;;;;;;;;;1036385;28;20512;-16
2023/02/19 01:22:16;;;;;;;17.23;5.72;;;;;;;;;;1036328;28;20053;-15
2023/02/19 01:22:46;;;;;;;11.80;6.72;;;;;;;;;;1036384;28;20017;-16
2023/02/19 01:23:17;;;;;;;8.45;6.43;;;;;;;;;;1037549;28;20132;-16
2023/02/19 01:23:48;;;;;;;9.57;5.75;;;;;;;;;;1037368;28;20071;-16
2023/02/19 01:24:18;;;;;;;11.07;6.82;;;;;;;;;;1037218;28;20362;-16
2023/02/19 01:24:49;;;;;;;18.77;8.02;;;;;;;;;;1037586;28;20041;-16
2023/02/19 01:25:19;;;;;;;11.60;5.90;;;;;;;;;;1037297;28;20608;-15
2023/02/19 01:25:49;;;;;;;16.17;7.85;;;;;;;;;;1037380;28;20017;-16
2023/02/19 01:26:22;;;;;;;15.65;6.30;;;;;;;;;;1037160;28;20021;-17
2023/02/19 01:26:52;;;;;;;18.20;8.43;;;;;;;;;;1037463;28;20021;-19
2023/02/19 01:27:22;;;;;;;13.35;6.90;;;;;;;;;;1037157;28;20025;-14
2023/02/19 01:27:53;;;;;;;8.80;5.20;;;;;;;;;;1037610;28;20490;-16
2023/02/19 01:28:23;;;;;;;12.75;6.95;;;;;;;;;;1037431;28;20053;-19
2023/02/19 01:28:54;;;;;;;11.60;7.97;;;;;;;;;;1036791;28;20025;-14
2023/02/19 01:29:24;;;;;;;16.38;6.93;;;;;;;;;;1037299;28;20025;-16
2023/02/19 01:29:55;;;;;;;9.93;6.00;;;;;;;;;;1037505;28;20626;-17
2023/02/19 01:30:25;;;;;;;9.65;5.72;;;;;;;;;;1037455;28;20025;-17
2023/02/19 01:30:59;;;;;;;12.98;6.10;;;;;;;;;;1037062;28;20476;-18
2023/02/19 01:31:30;;;;;;;11.45;6.75;;;;;;;;;;1037296;28;20033;-15
2023/02/19 01:32:00;;;;;;;21.58;8.43;;;;;;;;;;1037170;28;20029;-16
2023/02/19 01:32:31;;;;;;;17.95;6.43;;;;;;;;;;1036465;28;20021;-19
2023/02/19 01:33:02;;;;;;;12.50;7.97;;;;;;;;;;1035687;28;20070;-19
2023/02/19 01:33:34;;;;;;;11.55;7.70;;;;;;;;;;1032633;28;20101;-15
2023/02/19 01:34:05;;;;;;;15.90;8.05;;;;;;;;;;1033367;28;20021;-16
2023/02/19 01:34:35;;;;;;;15.75;9.23;;;;;;;;;;1033321;28;20021;-16
2023/02/19 01:35:06;;;;;;;16.20;8.98;;;;;;;;;;1033476;28;20147;-17
2023/02/19 01:35:39;;;;;;;21.27;9.10;;;;;;;;;;1037540;28;20069;-15
2023/02/19 01:36:10;;;;;;;20.02;7.85;;;;;;;;;;1036886;28;20022;-16
2023/02/19 01:36:41;;;;;;;19.83;7.60;;;;;;;;;;1036547;28;20465;-16
2023/02/19 01:37:11;;;;;;;16.42;7.68;;;;;;;;;;1037536;28;20021;-15
2023/02/19 01:37:42;;;;;;;22.23;8.05;;;;;;;;;;1037194;28;20429;-16
2023/02/19 01:38:12;;;;;;;22.60;9.75;;;;;;;;;;1037270;28;20022;-16
2023/02/19 01:38:43;;;;;;;17.70;8.90;;;;;;;;;;1037428;28;20457;-17
2023/02/19 01:39:14;;;;;;;16.00;7.28;;;;;;;;;;1032968;28;20069;-18
2023/02/19 01:39:46;;;;;;;29.52;9.82;;;;;;;;;;1033109;28;20030;-16
2023/02/19 01:40:16;;;;;;;14.95;9.60;;;;;;;;;;1032020;28;20053;-16
2023/02/19 01:40:57;;;;;;;22.42;6.80;;;;;;;;;;1033384;28;20366;-16
2023/02/19 01:41:28;;;;;;;37.17;14.18;;;;;;;;;;1036530;28;20489;-16
2023/02/19 01:41:58;;;;;;;30.83;13.40;;;;;;;;;;1037102;28;20116;-15
2023/02/19 01:42:29;;;;;;;35.10;13.82;;;;;;;;;;1037166;28;20065;-15
2023/02/19 01:42:59;;;;;;;34.05;13.20;;;;;;;;;;1037425;28;20487;-16
2023/02/19 01:43:33;;;;;;;19.65;12.15;;;;;;;;;;1037366;28;20053;-15
2023/02/19 01:44:06;;;;;;;31.05;12.68;;;;;;;;;;1036484;28;20061;-14
2023/02/19 01:44:37;;;;;;;20.58;10.38;;;;;;;;;;1037469;28;20021;-15
2023/02/19 01:45:24;;;;;;;25.42;11.68;;;;;;;;;;1037426;28;20085;-15
2023/02/19 01:45:55;;;;;;;17.60;7.63;;;;;;;;;;1037066;28;20393;-14
2023/02/19 01:46:26;;;;;;;21.42;11.38;;;;;;;;;;1037540;28;20030;-17
2023/02/19 01:46:57;;;;;;;23.45;12.93;;;;;;;;;;1038404;28;20052;-16
2023/02/19 01:47:28;;;;;;;28.95;11.55;;;;;;;;;;1037253;28;20017;-16
2023/02/19 01:48:15;;;;;;;23.10;10.65;;;;;;;;;;1037829;28;20121;-17
2023/02/19 01:48:46;;;;;;;12.57;7.30;;;;;;;;;;1037412;28;20394;-18
2023/02/19 01:49:22;;;;;;;26.75;11.30;;;;;;;;;;1038528;28;20026;-17
2023/02/19 01:49:54;;;;;;;18.88;10.43;;;;;;;;;;1037146;28;20504;-17
2023/02/19 01:50:26;;;;;;;17.40;7.72;;;;;;;;;;1036964;28;20021;-17
2023/02/19 01:50:57;;;;;;;17.55;7.85;;;;;;;;;;1038382;28;20045;-16
2023/02/19 01:51:29;;;;;;;22.98;9.18;;;;;;;;;;1038322;28;20018;-15
2023/02/19 01:52:18;;;;;;;17.05;10.05;;;;;;;;;;1038015;28;20128;-15
2023/02/19 01:52:49;;;;;;;24.60;9.88;;;;;;;;;;1037655;28;20393;-15
2023/02/19 01:53:21;;;;;;;19.48;9.45;;;;;;;;;;1038223;28;20026;-16
2023/02/19 01:53:54;;;;;;;14.43;8.57;;;;;;;;;;1038258;28;20037;-17
2023/02/19 01:54:27;;;;;;;19.00;9.55;;;;;;;;;;1037803;28;20025;-16
2023/02/19 01:54:58;;;;;;;15.43;7.03;;;;;;;;;;1038514;28;20543;-15
2023/02/19 01:55:28;;;;;;;18.83;9.35;;;;;;;;;;1037652;28;20297;-16
2023/02/19 01:55:59;;;;;;;23.58;10.48;;;;;;;;;;1038264;28;20497;-17
2023/02/19 01:56:31;;;;;;;29.70;9.45;;;;;;;;;;1038356;28;20021;-16
2023/02/19 01:57:04;;;;;;;26.20;9.98;;;;;;;;;;1037250;28;20027;-15
2023/02/19 01:57:36;;;;;;;20.52;8.40;;;;;;;;;;1038222;28;20034;-18
2023/02/19 01:58:07;;;;;;;28.98;13.10;;;;;;;;;;1038154;28;20022;-15
2023/02/19 01:58:38;;;;;;;33.55;14.55;;;;;;;;;;1038211;28;20032;-16
2023/02/19 01:59:09;;;;;;;29.60;11.25;;;;;;;;;;1037654;28;20549;-15
2023/02/19 01:59:40;;;;;;;22.30;11.15;;;;;;;;;;1037760;28;20034;-16
2023/02/19 02:00:12;;;;;;;28.77;15.48;;;;;;;;;;1038253;28;20508;-15
2023/02/19 02:00:43;;;;;;;30.45;13.00;;;;;;;;;;1038441;28;20442;-14
2023/02/19 02:01:13;;;;;;;40.08;16.02;;;;;;;;;;1038295;28;20478;-16
2023/02/19 02:01:44;;;;;;;34.83;17.20;;;;;;;;;;1037868;28;20112;-16
2023/02/19 02:02:15;;;;;;;19.13;11.55;;;;;;;;;;1038108;28;20116;-16
2023/02/19 02:02:48;;;;;;;31.33;12.38;;;;;;;;;;1038427;28;20041;-16
2023/02/19 02:03:19;;;;;;;27.13;11.98;;;;;;;;;;1037051;28;20409;-16
2023/02/19 02:03:50;;;;;;;27.85;14.60;;;;;;;;;;1038413;28;20040;-15
2023/02/19 02:04:21;;;;;;;41.95;19.15;;;;;;;;;;1037772;28;20029;-17
2023/02/19 02:04:52;;;;;;;41.60;16.27;;;;;;;;;;1038084;28;20064;-16
2023/02/19 02:05:41;;;;;;;33.45;15.57;;;;;;;;;;1038194;28;20040;-19
2023/02/19 02:06:16;;;;;;;44.17;16.23;;;;;;;;;;1037956;28;20351;-16
2023/02/19 02:06:48;;;;;;;34.95;17.73;;;;;;;;;;1038045;28;20256;-15
2023/02/19 02:10:35;;;;;;;23.98;13.93;;;;;;;;;;1037624;28;20026;-16
2023/02/19 02:11:06;;;;;;;35.58;14.50;;;;;;;;;;1038144;28;20057;-19
2023/02/19 02:11:38;;;;;;;36.58;16.27;;;;;;;;;;1037863;28;20021;-16
2023/02/19 02:12:08;;;;;;;44.75;14.90;;;;;;;;;;1038066;28;20013;-17
2023/02/19 02:12:39;;;;;;;40.00;15.20;;;;;;;;;;1037998;28;20056;-17
2023/02/19 02:13:09;;;;;;;21.88;12.93;;;;;;;;;;1038366;28;20025;-14
2023/02/19 02:13:40;;;;;;;22.80;11.73;;;;;;;;;;1037857;28;20052;-17
2023/02/19 02:14:11;;;;;;;40.38;16.45;;;;;;;;;;1038256;28;20048;-16
2023/02/19 02:14:46;;;;;;;32.90;15.02;;;;;;;;;;1038096;28;20396;-17
2023/02/19 02:15:17;;;;;;;28.92;15.02;;;;;;;;;;1037031;28;20129;-18
2023/02/19 02:15:50;;;;;;;24.08;14.10;;;;;;;;;;1037994;28;20588;-17
2023/02/19 02:16:28;;;;;;;28.50;11.98;;;;;;;;;;1037645;28;20025;-16
2023/02/19 02:17:08;;;;;;;22.80;12.10;;;;;;;;;;1037840;28;20018;-16
2023/02/19 02:17:39;;;;;;;29.33;11.70;;;;;;;;;;1037452;28;20033;-16
2023/02/19 02:18:09;;;;;;;33.45;11.02;;;;;;;;;;1037943;28;20130;-16
2023/02/19 02:18:40;;;;;;;17.27;8.98;;;;;;;;;;1037808;28;20033;-15
2023/02/19 02:19:13;;;;;;;23.60;12.45;;;;;;;;;;1037982;28;20022;-16
2023/02/19 02:19:59;;;;;;;17.15;11.23;;;;;;;;;;1037220;28;20088;-16
2023/02/19 02:20:35;;;;;;;15.80;7.45;;;;;;;;;;1038002;28;20057;-17
2023/02/19 02:21:06;;;;;;;16.67;8.40;;;;;;;;;;1037875;28;20022;-18
2023/02/19 02:21:36;;;;;;;16.52;9.38;;;;;;;;;;1037704;28;20385;-16
2023/02/19 02:22:14;;;;;;;30.23;10.40;;;;;;;;;;1037962;28;20025;-18
2023/02/19 02:23:03;;;;;;;23.05;10.07;;;;;;;;;;1038199;28;20036;-18
2023/02/19 02:23:56;;;;;;;15.50;8.57;;;;;;;;;;1037995;28;20362;-18
2023/02/19 02:24:47;;;;;;;19.02;8.07;;;;;;;;;;1037804;28;20017;-16
2023/02/19 02:25:27;;;;;;;12.50;9.07;;;;;;;;;;1038228;28;20053;-16
2023/02/19 02:26:00;;;;;;;15.57;8.30;;;;;;;;;;1037273;28;20054;-16
2023/02/19 02:26:43;;;;;;;29.83;9.77;;;;;;;;;;1036827;28;20099;-16
2023/02/19 02:27:26;;;;;;;24.13;10.18;;;;;;;;;;1037945;28;20022;-18
2023/02/19 02:28:15;;;;;;;22.02;8.68;;;;;;;;;;1037825;28;20057;-14
2023/02/19 02:29:01;;;;;;;21.00;8.88;;;;;;;;;;1038216;28;20022;-15
2023/02/19 02:29:34;;;;;;;11.07;7.60;;;;;;;;;;1036823;28;20021;-15
2023/02/19 02:30:25;;;;;;;9.77;5.88;;;;;;;;;;1038037;28;20017;-16
2023/02/19 02:30:58;;;;;;;10.75;4.97;;;;;;;;;;1022665;28;20034;-15
2023/02/19 02:31:38;;;;;;;9.60;5.32;;;;;;;;;;1037498;28;20034;-15
2023/02/19 02:32:11;;;;;;;11.85;6.95;;;;;;;;;;1037746;28;20021;-17
2023/02/19 02:32:52;;;;;;;14.23;5.82;;;;;;;;;;1037468;28;20402;-18
2023/02/19 02:33:36;;;;;;;9.55;5.63;;;;;;;;;;1037771;28;20518;-15
2023/02/19 02:34:23;;;;;;;23.52;9.77;;;;;;;;;;1038659;28;20048;-17
2023/02/19 02:34:56;;;;;;;15.23;7.85;;;;;;;;;;1038095;28;20026;-15
2023/02/19 02:35:33;;;;;;;21.88;9.18;;;;;;;;;;1037909;28;20022;-16
2023/02/19 02:36:18;;;;;;;19.88;9.02;;;;;;;;;;1038133;28;20064;-18
2023/02/19 02:36:52;;;;;;;19.20;9.02;;;;;;;;;;1037288;28;20494;-15
2023/02/19 02:37:24;;;;;;;16.05;7.90;;;;;;;;;;1037998;28;20026;-15
2023/02/19 02:37:58;;;;;;;15.80;6.63;;;;;;;;;;1037490;28;20017;-18
2023/02/19 02:38:31;;;;;;;13.38;7.50;;;;;;;;;;1037937;28;20485;-15
2023/02/19 02:39:04;;;;;;;10.82;5.97;;;;;;;;;;1037123;28;20126;-15
2023/02/19 02:39:35;;;;;;;14.27;7.75;;;;;;;;;;1037881;28;20026;-15
2023/02/19 02:40:06;;;;;;;10.30;6.53;;;;;;;;;;1038261;28;20076;-16
2023/02/19 02:40:38;;;;;;;16.95;9.57;;;;;;;;;;1037922;28;20053;-15
2023/02/19 02:41:10;;;;;;;12.73;6.20;;;;;;;;;;1037969;28;20053;-16
2023/02/19 02:41:44;;;;;;;14.35;8.32;;;;;;;;;;1037486;28;20026;-18
2023/02/19 02:42:27;;;;;;;13.32;6.20;;;;;;;;;;1037776;28;20029;-14
2023/02/19 02:42:57;;;;;;;11.60;5.15;;;;;;;;;;1038249;28;20064;-16
2023/02/19 02:43:28;;;;;;;17.58;9.25;;;;;;;;;;1037957;28;20025;-17
2023/02/19 02:43:58;;;;;;;14.07;8.15;;;;;;;;;;1037619;28;20029;-16
2023/02/19 02:44:35;;;;;;;15.38;5.35;;;;;;;;;;1037974;28;20377;-16
2023/02/19 02:45:33;;;;;;;18.85;7.63;;;;;;;;;;1037601;28;20112;-13
2023/02/19 02:46:04;;;;;;;13.30;6.35;;;;;;;;;;1037335;28;20076;-15
2023/02/19 02:46:37;;;;;;;12.30;7.53;;;;;;;;;;1037963;28;20132;-16
2023/02/19 02:47:39;;;;;;;26.83;9.15;;;;;;;;;;1038327;28;20112;-17
2023/02/19 02:48:00;;;;;;;7.97;6.32;;;;;;;;;;1037643;28;20084;-17
2023/02/19 02:48:33;;;;;;;13.90;7.63;;;;;;;;;;1036912;28;20420;-15
2023/02/19 02:49:05;;;;;;;11.45;8.27;;;;;;;;;;1037478;28;20034;-17
2023/02/19 02:50:03;;;;;;;33.50;10.43;;;;;;;;;;1038082;28;20033;-15
2023/02/19 02:50:31;;;;;;;21.23;9.85;;;;;;;;;;1037794;28;20044;-17
2023/02/19 02:51:16;;;;;;;18.73;7.70;;;;;;;;;;1038272;28;20043;-15
2023/02/19 02:51:49;;;;;;;15.30;8.70;;;;;;;;;;1037233;28;20024;-13
2023/02/19 02:55:03;;;;;;;12.55;8.38;;;;;;;;;;1038073;28;20018;-14
2023/02/19 02:55:37;;;;;;;15.15;8.18;;;;;;;;;;1037832;28;20056;-16
2023/02/19 02:56:09;;;;;;;28.60;9.35;;;;;;;;;;1037926;28;20068;-15
2023/02/19 02:56:40;;;;;;;15.60;8.30;;;;;;;;;;1037549;28;20030;-16
2023/02/19 02:57:13;;;;;;;20.48;9.52;;;;;;;;;;1037268;28;20069;-17
2023/02/19 02:57:44;;;;;;;27.85;10.45;;;;;;;;;;1037568;28;20026;-14
2023/02/19 02:58:15;;;;;;;8.95;7.40;;;;;;;;;;1037751;28;20470;-15
2023/02/19 02:58:46;;;;;;;17.15;10.13;;;;;;;;;;1037987;28;20026;-17
2023/02/19 02:59:18;;;;;;;17.70;8.27;;;;;;;;;;1035994;28;20018;-18
2023/02/19 02:59:49;;;;;;;17.95;9.27;;;;;;;;;;1033551;28;20025;-16
2023/02/19 03:00:20;;;;;;;16.10;7.57;;;;;;;;;;1033462;28;20397;-15
2023/02/19 03:02:38;;;;;;;14.02;7.55;;;;;;;;;;1037353;28;20022;-16
2023/02/19 03:03:08;;;;;;;15.30;9.50;;;;;;;;;;1038122;28;20072;-15
2023/02/19 03:03:40;;;;;;;15.40;7.20;;;;;;;;;;1037572;28;20032;-18
2023/02/19 03:04:13;;;;;;;16.75;7.53;;;;;;;;;;1037589;28;20484;-15
2023/02/19 03:05:50;;;;;;;17.02;8.20;;;;;;;;;;1037542;28;20026;-14
2023/02/19 03:06:23;;;;;;;19.10;7.60;;;;;;;;;;1037892;28;20031;-16
2023/02/19 03:06:54;;;;;;;15.40;8.45;;;;;;;;;;1037692;28;20025;-18
2023/02/19 03:07:27;;;;;;;28.52;10.15;;;;;;;;;;1037620;28;20030;-16
2023/02/19 03:08:15;;;;;;;22.10;10.27;;;;;;;;;;1037870;28;20033;-16
2023/02/19 03:09:06;;;;;;;21.95;10.10;;;;;;;;;;1038003;28;20029;-17
2023/02/19 03:09:40;;;;;;;23.30;8.38;;;;;;;;;;1037356;28;20532;-14
2023/02/19 03:10:14;;;;;;;26.55;8.85;;;;;;;;;;1037345;28;20448;-19
2023/02/19 03:10:51;;;;;;;14.23;8.45;;;;;;;;;;1038091;28;20018;-19
2023/02/19 03:19:33;;;;;;;26.83;10.60;;;;;;;;;;1037692;28;20022;-17
2023/02/19 03:20:06;;;;;;;23.20;11.60;;;;;;;;;;1037389;28;20025;-14
2023/02/19 03:20:39;;;;;;;35.88;12.93;;;;;;;;;;1037880;28;20040;-16
2023/02/19 03:21:10;;;;;;;21.65;10.77;;;;;;;;;;1038104;28;20023;-17
2023/02/19 03:21:42;;;;;;;16.13;10.25;;;;;;;;;;1037736;28;20503;-16
2023/02/19 03:22:25;;;;;;;27.25;10.32;;;;;;;;;;1037915;28;20022;-17
2023/02/19 03:22:56;;;;;;;23.33;11.68;;;;;;;;;;1037510;28;20022;-16
2023/02/19 03:26:02;;;;;;;24.67;11.95;;;;;;;;;;1038035;28;20513;-20
2023/02/19 03:26:09;;;;;;;21.63;9.70;;;;;;;;;;1035822;28;20029;-16
2023/02/19 03:26:40;;;;;;;19.75;10.05;;;;;;;;;;1035933;28;20241;-18
2023/02/19 03:27:13;;;;;;;41.45;12.02;;;;;;;;;;1035933;28;20058;-14
2023/02/19 03:27:44;;;;;;;21.23;9.50;;;;;;;;;;1035748;28;20068;-17
2023/02/19 03:28:17;;;;;;;26.95;11.25;;;;;;;;;;1035473;28;20038;-15
2023/02/19 03:29:40;;;;;;;30.10;9.82;;;;;;;;;;1037450;28;20125;-16
2023/02/19 03:30:21;;;;;;;28.88;13.88;;;;;;;;;;1037560;28;20104;-18
2023/02/19 03:30:52;;;;;;;26.10;10.60;;;;;;;;;;1037846;28;20080;-15
2023/02/19 03:31:23;;;;;;;22.52;12.07;;;;;;;;;;1037661;28;20080;-18
2023/02/19 03:31:56;;;;;;;28.52;12.32;;;;;;;;;;1037818;28;20033;-19
2023/02/19 03:32:53;;;;;;;24.30;10.43;;;;;;;;;;1037531;28;20468;-18